createdAt,value
2023-03-19T00:00:12.460Z,82.73
2023-03-19T00:02:51.335Z,82.50
2023-03-19T00:05:42.229Z,82.37
2023-03-19T00:08:18.668Z,81.97
2023-03-19T00:11:04.662Z,81.94
2023-03-19T00:13:41.148Z,81.99
2023-03-19T00:16:29.979Z,81.88
2023-03-19T00:19:11.141Z,81.58
2023-03-19T00:21:39.750Z,81.38
2023-03-19T00:24:17.806Z,81.12
2023-03-19T00:29:44.410Z,80.71
2023-03-19T00:32:23.186Z,80.41
2023-03-19T00:35:06.728Z,79.91
2023-03-19T00:37:59.006Z,79.50
2023-03-19T00:40:38.487Z,78.79
2023-03-19T00:43:19.344Z,78.87
2023-03-19T00:46:03.851Z,78.33
2023-03-19T00:48:42.116Z,78.03
2023-03-19T00:51:34.105Z,77.47
2023-03-19T00:54:21.944Z,77.23
2023-03-19T00:56:53.827Z,76.57
2023-03-19T00:59:39.134Z,76.52
2023-03-19T01:02:19.437Z,76.23
2023-03-19T01:05:12.364Z,75.95
2023-03-19T01:07:54.918Z,75.32
2023-03-19T01:10:41.976Z,74.92
2023-03-19T01:13:15.828Z,75.31
2023-03-19T01:15:58.819Z,74.92
2023-03-19T01:18:28.460Z,74.95
2023-03-19T01:21:13.277Z,74.89
2023-03-19T01:23:46.174Z,74.85
2023-03-19T01:26:30.109Z,74.99
2023-03-19T01:29:10.696Z,75.48
2023-03-19T01:31:52.274Z,75.61
2023-03-19T01:34:29.701Z,75.88
2023-03-19T01:37:19.579Z,76.30
2023-03-19T01:40:29.271Z,76.84
2023-03-19T01:43:39.162Z,77.09
2023-03-19T01:46:19.297Z,77.51
2023-03-19T01:49:13.488Z,77.40
2023-03-19T01:51:46.192Z,77.89
2023-03-19T01:58:05.239Z,78.19
2023-03-19T02:00:49.569Z,78.27
2023-03-19T02:07:08.863Z,78.34
2023-03-19T02:09:48.118Z,78.83
2023-03-19T02:12:32.995Z,78.63
2023-03-19T02:15:22.130Z,79.10
2023-03-19T02:17:53.889Z,79.00
2023-03-19T02:21:01.455Z,79.40
2023-03-19T02:24:03.855Z,79.30
2023-03-19T02:26:46.043Z,79.32
2023-03-19T02:29:18.346Z,79.26
2023-03-19T02:32:03.266Z,79.41
2023-03-19T02:38:02.906Z,80.15
2023-03-19T02:40:56.377Z,79.95
2023-03-19T02:46:29.240Z,80.39
2023-03-19T02:49:12.535Z,80.07
2023-03-19T02:55:00.112Z,80.12
2023-03-19T02:57:47.969Z,80.13
2023-03-19T03:00:35.453Z,80.16
2023-03-19T03:03:31.542Z,80.62
2023-03-19T03:06:30.545Z,80.83
2023-03-19T03:09:07.869Z,81.25
2023-03-19T03:11:40.600Z,81.64
2023-03-19T03:14:29.005Z,81.46
2023-03-19T03:17:06.450Z,81.47
2023-03-19T03:19:42.293Z,81.94
2023-03-19T03:22:22.551Z,81.27
2023-03-19T03:25:15.529Z,82.01
2023-03-19T03:28:06.665Z,81.93
2023-03-19T03:33:38.298Z,81.61
2023-03-19T03:36:27.530Z,81.70
2023-03-19T03:42:23.531Z,81.31
2023-03-19T03:48:03.660Z,81.26
2023-03-19T03:50:42.721Z,81.06
2023-03-19T03:53:22.724Z,81.31
2023-03-19T03:56:09.722Z,81.20
2023-03-19T03:58:50.203Z,81.33
2023-03-19T04:01:30.716Z,81.39
2023-03-19T04:04:11.487Z,80.99
2023-03-19T04:06:53.614Z,81.05
2023-03-19T04:09:36.408Z,80.87
2023-03-19T04:12:45.870Z,80.92
2023-03-19T04:15:25.908Z,81.32
2023-03-19T04:18:02.944Z,81.17
2023-03-19T04:23:28.121Z,81.05
2023-03-19T04:26:25.535Z,81.30
2023-03-19T04:28:59.803Z,80.92
2023-03-19T04:31:45.459Z,81.11
2023-03-19T04:34:17.385Z,80.88
2023-03-19T04:37:00.775Z,81.47
2023-03-19T04:39:38.222Z,80.99
2023-03-19T04:42:33.899Z,81.63
2023-03-19T04:45:17.547Z,81.54
2023-03-19T04:47:52.704Z,82.23
2023-03-19T04:50:23.922Z,82.33
2023-03-19T04:53:01.742Z,82.78
2023-03-19T04:55:29.087Z,83.42
2023-03-19T04:58:06.757Z,83.83
2023-03-19T05:00:40.652Z,84.10
2023-03-19T05:03:14.662Z,84.33
2023-03-19T05:05:41.463Z,85.19
2023-03-19T05:08:15.580Z,84.99
2023-03-19T05:10:48.482Z,85.20
2023-03-19T05:13:15.205Z,85.51
2023-03-19T05:15:53.260Z,85.64
2023-03-19T05:18:23.177Z,85.46
2023-03-19T05:20:56.693Z,86.10
2023-03-19T05:23:24.179Z,85.99
2023-03-19T05:25:58.615Z,85.73
2023-03-19T05:28:25.630Z,86.10
2023-03-19T05:31:01.699Z,86.01
2023-03-19T05:33:28.813Z,85.68
2023-03-19T05:36:02.701Z,85.56
2023-03-19T05:38:35.656Z,85.38
2023-03-19T05:41:15.582Z,85.56
2023-03-19T05:43:49.608Z,85.68
2023-03-19T05:46:16.668Z,85.77
2023-03-19T05:48:53.296Z,85.83
2023-03-19T05:51:26.744Z,86.04
2023-03-19T05:54:00.602Z,85.93
2023-03-19T05:56:28.183Z,86.12
2023-03-19T05:59:01.603Z,86.27
2023-03-19T06:01:38.350Z,86.08
2023-03-19T06:04:11.828Z,85.93
2023-03-19T06:06:38.885Z,85.75
2023-03-19T06:09:12.583Z,85.89
2023-03-19T06:11:47.670Z,85.64
2023-03-19T06:14:21.614Z,85.70
2023-03-19T06:16:49.050Z,86.21
2023-03-19T06:19:25.294Z,86.28
2023-03-19T06:21:52.804Z,86.03
2023-03-19T06:24:26.557Z,85.87
2023-03-19T06:27:09.462Z,85.87
2023-03-19T06:29:43.757Z,85.72
2023-03-19T06:32:17.646Z,86.35
2023-03-19T06:34:51.746Z,86.45
2023-03-19T06:37:19.704Z,86.72
2023-03-19T06:40:01.613Z,86.21
2023-03-19T06:42:28.651Z,85.75
2023-03-19T06:45:02.616Z,85.64
2023-03-19T06:47:29.788Z,85.72
2023-03-19T06:49:56.816Z,85.67
2023-03-19T06:52:47.702Z,85.73
2023-03-19T06:55:21.204Z,85.84
2023-03-19T06:57:58.824Z,85.58
2023-03-19T07:00:25.970Z,85.71
2023-03-19T07:02:59.729Z,85.88
2023-03-19T07:05:27.056Z,85.78
2023-03-19T07:07:54.203Z,85.33
2023-03-19T07:10:28.890Z,85.44
2023-03-19T07:12:56.292Z,85.54
2023-03-19T07:15:30.777Z,85.76
2023-03-19T07:18:04.839Z,85.69
2023-03-19T07:20:32.345Z,85.82
2023-03-19T07:23:06.721Z,85.62
2023-03-19T07:25:40.873Z,85.66
2023-03-19T07:28:15.712Z,85.81
2023-03-19T07:30:49.673Z,85.76
2023-03-19T07:33:23.718Z,85.69
2023-03-19T07:35:54.099Z,85.84
2023-03-19T07:38:28.660Z,86.06
2023-03-19T07:41:08.133Z,85.75
2023-03-19T07:43:41.776Z,85.66
2023-03-19T07:46:20.069Z,85.50
2023-03-19T07:48:58.802Z,85.71
2023-03-19T07:51:33.744Z,85.45
2023-03-19T07:54:14.987Z,85.40
2023-03-19T07:56:42.553Z,85.07
2023-03-19T07:59:16.616Z,85.21
2023-03-19T08:01:50.934Z,84.93
2023-03-19T08:04:21.208Z,83.91
2023-03-19T08:06:54.796Z,83.94
2023-03-19T08:09:25.423Z,83.15
2023-03-19T08:11:59.900Z,83.08
2023-03-19T08:14:27.404Z,83.38
2023-03-19T08:17:00.939Z,82.74
2023-03-19T08:19:28.466Z,82.55
2023-03-19T08:22:08.848Z,82.20
2023-03-19T08:24:36.832Z,81.71
2023-03-19T08:27:10.705Z,81.76
2023-03-19T08:29:40.865Z,81.84
2023-03-19T08:32:09.091Z,81.77
2023-03-19T08:34:49.454Z,81.10
2023-03-19T08:37:23.844Z,81.30
2023-03-19T08:40:15.780Z,81.13
2023-03-19T08:42:45.554Z,80.35
2023-03-19T08:45:24.548Z,80.78
2023-03-19T08:47:52.191Z,80.91
2023-03-19T08:50:29.020Z,80.67
2023-03-19T08:53:00.010Z,79.46
2023-03-19T08:55:42.621Z,79.71
2023-03-19T08:58:16.376Z,79.46
2023-03-19T09:00:53.021Z,79.57
2023-03-19T09:03:22.357Z,79.95
2023-03-19T09:06:01.187Z,79.90
2023-03-19T09:08:31.757Z,79.78
2023-03-19T09:11:26.603Z,79.85
2023-03-19T09:14:02.215Z,80.16
2023-03-19T09:16:42.824Z,80.46
2023-03-19T09:19:20.824Z,80.08
2023-03-19T09:21:51.345Z,80.02
2023-03-19T09:24:34.052Z,79.73
2023-03-19T09:27:08.828Z,79.93
2023-03-19T09:29:42.750Z,79.46
2023-03-19T09:32:26.581Z,79.51
2023-03-19T09:35:01.058Z,79.79
2023-03-19T09:37:34.787Z,79.09
2023-03-19T09:40:09.730Z,78.92
2023-03-19T09:43:04.904Z,78.46
2023-03-19T09:45:39.057Z,78.10
2023-03-19T09:48:20.641Z,77.54
2023-03-19T09:51:00.013Z,77.42
2023-03-19T09:53:56.776Z,76.92
2023-03-19T09:56:44.895Z,74.94
2023-03-19T09:59:15.140Z,74.76
2023-03-19T10:02:42.134Z,75.00
2023-03-19T10:05:27.003Z,74.56
2023-03-19T10:08:23.642Z,74.90
2023-03-19T10:11:06.866Z,74.08
2023-03-19T10:13:58.248Z,74.04
2023-03-19T10:16:45.759Z,74.07
2023-03-19T10:19:25.125Z,73.12
2023-03-19T10:22:14.992Z,72.23
2023-03-19T10:24:58.244Z,70.52
2023-03-19T10:27:38.947Z,69.57
2023-03-19T10:30:23.390Z,68.87
2023-03-19T10:33:30.901Z,67.59
2023-03-19T10:36:19.316Z,65.74
2023-03-19T10:39:01.013Z,66.22
2023-03-19T10:42:19.662Z,67.11
2023-03-19T10:44:58.958Z,67.34
2023-03-19T10:47:34.411Z,66.16
2023-03-19T10:50:45.759Z,66.22
2023-03-19T10:53:33.592Z,65.04
2023-03-19T10:56:11.228Z,61.69
2023-03-19T10:58:49.034Z,60.45
2023-03-19T11:01:26.926Z,60.67
2023-03-19T11:04:02.939Z,59.92
2023-03-19T11:06:46.045Z,59.69
2023-03-19T11:09:47.251Z,57.63
2023-03-19T11:12:42.141Z,59.85
2023-03-19T11:15:38.295Z,58.43
2023-03-19T11:18:28.227Z,58.55
2023-03-19T11:21:34.262Z,58.31
2023-03-19T11:24:13.357Z,59.09
2023-03-19T11:26:48.239Z,57.91
2023-03-19T11:29:25.138Z,59.27
2023-03-19T11:32:27.918Z,60.61
2023-03-19T11:35:05.586Z,60.45
2023-03-19T11:38:23.556Z,57.83
2023-03-19T11:41:36.091Z,58.50
2023-03-19T11:44:21.993Z,57.99
2023-03-19T11:47:26.439Z,56.29
2023-03-19T11:50:38.035Z,55.95
2023-03-19T11:53:30.741Z,55.56
2023-03-19T11:56:47.826Z,55.31
2023-03-19T11:59:37.494Z,53.18
2023-03-19T12:02:38.461Z,53.15
2023-03-19T12:05:37.985Z,53.53
2023-03-19T12:08:43.776Z,52.78
2023-03-19T12:11:41.502Z,53.77
2023-03-19T12:14:32.904Z,52.77
2023-03-19T12:17:18.884Z,52.53
2023-03-19T12:20:27.443Z,52.90
2023-03-19T12:23:24.632Z,51.43
2023-03-19T12:26:36.410Z,51.28
2023-03-19T12:29:44.153Z,52.01
2023-03-19T12:32:44.007Z,51.34
2023-03-19T12:35:40.650Z,48.78
2023-03-19T12:38:40.149Z,49.04
2023-03-19T12:41:25.048Z,48.99
2023-03-19T12:44:10.373Z,48.58
2023-03-19T12:46:50.747Z,49.64
2023-03-19T12:49:27.818Z,47.50
2023-03-19T12:52:31.381Z,47.21
2023-03-19T12:55:26.794Z,47.72
2023-03-19T12:58:23.352Z,48.99
2023-03-19T13:01:17.420Z,49.28
2023-03-19T13:04:02.176Z,49.54
2023-03-19T13:06:37.899Z,50.55
2023-03-19T13:09:32.531Z,50.90
2023-03-19T13:12:20.377Z,51.41
2023-03-19T13:15:45.810Z,52.13
2023-03-19T13:18:37.625Z,53.04
2023-03-19T13:25:23.969Z,50.91
2023-03-19T13:27:56.792Z,51.51
2023-03-19T13:47:08.881Z,48.20
2023-03-19T13:49:35.855Z,49.30
2023-03-19T13:52:31.840Z,50.05
2023-03-19T13:55:34.741Z,50.46
2023-03-19T13:58:23.772Z,51.53
2023-03-19T14:00:58.227Z,52.71
2023-03-19T14:03:43.796Z,53.02
2023-03-19T14:06:38.982Z,53.38
2023-03-19T14:09:32.767Z,52.45
2023-03-19T14:12:18.085Z,51.77
2023-03-19T14:14:56.766Z,49.63
2023-03-19T14:17:49.534Z,50.10
2023-03-19T14:20:20.580Z,49.91
2023-03-19T14:23:15.778Z,50.99
2023-03-19T14:26:20.316Z,51.72
2023-03-19T14:29:01.800Z,52.75
2023-03-19T14:32:01.640Z,52.80
2023-03-19T14:34:46.775Z,52.69
2023-03-19T14:37:25.598Z,52.22
2023-03-19T14:40:05.817Z,52.88
2023-03-19T14:42:42.838Z,54.00
2023-03-19T14:45:46.969Z,53.87
2023-03-19T14:48:57.837Z,54.32
2023-03-19T14:51:39.850Z,54.85
2023-03-19T14:54:42.418Z,54.98
2023-03-19T14:57:22.921Z,55.75
2023-03-19T14:59:50.730Z,56.20
2023-03-19T15:02:49.852Z,56.76
2023-03-19T15:05:37.302Z,56.71
2023-03-19T15:08:13.841Z,57.26
2023-03-19T15:11:05.439Z,56.62
2023-03-19T15:13:51.834Z,57.35
2023-03-19T15:16:21.512Z,57.29
2023-03-19T15:18:55.805Z,57.76
2023-03-19T15:21:22.784Z,57.79
2023-03-19T15:23:55.836Z,58.29
2023-03-19T15:26:42.813Z,58.38
2023-03-19T15:29:12.414Z,58.46
2023-03-19T15:32:04.904Z,59.17
2023-03-19T15:34:32.674Z,61.54
2023-03-19T15:37:18.878Z,62.63
2023-03-19T15:39:55.458Z,63.69
2023-03-19T15:42:30.863Z,64.95
2023-03-19T15:45:15.855Z,65.80
2023-03-19T15:48:06.958Z,65.75
2023-03-19T15:50:37.328Z,66.73
2023-03-19T15:53:15.837Z,66.20
2023-03-19T15:55:43.232Z,66.98
2023-03-19T15:58:22.848Z,67.65
2023-03-19T16:00:53.243Z,67.38
2023-03-19T16:03:38.861Z,67.78
2023-03-19T16:06:19.850Z,68.69
2023-03-19T16:08:56.025Z,68.81
2023-03-19T16:11:44.892Z,67.96
2023-03-19T16:14:25.562Z,67.26
2023-03-19T16:17:06.922Z,67.20
2023-03-19T16:19:56.184Z,66.48
2023-03-19T16:22:40.951Z,67.04
2023-03-19T16:25:17.096Z,66.65
2023-03-19T16:27:50.998Z,67.90
2023-03-19T16:30:23.808Z,68.13
2023-03-19T16:33:11.853Z,67.71
2023-03-19T16:35:38.755Z,68.13
2023-03-19T16:38:34.920Z,68.13
2023-03-19T16:41:29.901Z,67.63
2023-03-19T16:44:17.966Z,68.72
2023-03-19T16:46:52.046Z,68.89
2023-03-19T16:49:27.899Z,68.96
2023-03-19T16:51:54.652Z,69.72
2023-03-19T16:54:31.035Z,70.05
2023-03-19T16:56:58.994Z,70.33
2023-03-19T16:59:38.075Z,71.13
2023-03-19T17:02:22.132Z,71.54
2023-03-19T17:04:55.980Z,71.67
2023-03-19T17:07:28.953Z,72.10
2023-03-19T17:10:05.000Z,71.90
2023-03-19T17:12:31.724Z,71.81
2023-03-19T17:15:04.935Z,71.98
2023-03-19T17:17:31.714Z,72.45
2023-03-19T17:20:04.993Z,72.79
2023-03-19T17:22:31.835Z,73.33
2023-03-19T17:25:04.926Z,74.02
2023-03-19T17:27:34.576Z,73.86
2023-03-19T17:30:07.933Z,74.09
2023-03-19T17:32:34.833Z,74.15
2023-03-19T17:35:07.955Z,73.86
2023-03-19T17:37:42.918Z,74.17
2023-03-19T17:40:25.932Z,74.40
2023-03-19T17:42:53.829Z,74.83
2023-03-19T17:45:41.930Z,74.26
2023-03-19T17:48:24.952Z,74.91
2023-03-19T17:50:54.619Z,74.91
2023-03-19T17:53:27.875Z,75.28
2023-03-19T17:55:54.511Z,75.31
2023-03-19T17:58:28.873Z,75.87
2023-03-19T18:00:55.760Z,75.63
2023-03-19T18:03:31.943Z,76.52
2023-03-19T18:05:58.608Z,76.50
2023-03-19T18:08:31.925Z,76.83
2023-03-19T18:10:58.550Z,76.65
2023-03-19T18:13:31.878Z,76.93
2023-03-19T18:15:58.678Z,77.06
2023-03-19T18:18:25.848Z,77.59
2023-03-19T18:21:00.665Z,77.68
2023-03-19T18:23:33.897Z,77.81
2023-03-19T18:26:00.655Z,78.33
2023-03-19T18:28:34.007Z,78.67
2023-03-19T18:31:01.206Z,78.42
2023-03-19T18:33:37.990Z,78.86
2023-03-19T18:36:10.922Z,79.34
2023-03-19T18:38:37.588Z,79.35
2023-03-19T18:41:10.927Z,78.92
2023-03-19T18:43:37.574Z,79.53
2023-03-19T18:46:13.006Z,79.77
2023-03-19T18:48:46.514Z,79.76
2023-03-19T18:51:19.938Z,79.94
2023-03-19T18:53:46.694Z,80.08
2023-03-19T18:56:29.975Z,80.01
2023-03-19T18:59:04.959Z,80.28
2023-03-19T19:01:32.645Z,80.12
2023-03-19T19:04:06.025Z,80.30
2023-03-19T19:06:46.876Z,80.53
2023-03-19T19:09:22.088Z,80.49
2023-03-19T19:11:49.275Z,80.20
2023-03-19T19:14:26.944Z,79.28
2023-03-19T19:17:00.069Z,79.36
2023-03-19T19:19:34.137Z,80.25
2023-03-19T19:22:00.879Z,80.30
2023-03-19T19:24:40.970Z,80.32
2023-03-19T19:27:21.939Z,80.84
2023-03-19T19:29:56.011Z,80.94
2023-03-19T19:32:25.059Z,81.07
2023-03-19T19:34:59.019Z,81.51
2023-03-19T19:37:25.963Z,81.60
2023-03-19T19:39:58.966Z,81.56
2023-03-19T19:42:32.938Z,82.12
2023-03-19T19:45:06.083Z,81.96
2023-03-19T19:47:41.967Z,82.04
2023-03-19T19:50:23.945Z,81.29
2023-03-19T19:52:57.000Z,81.46
2023-03-19T19:55:33.115Z,80.60
2023-03-19T19:58:08.661Z,80.41
2023-03-19T20:01:02.226Z,79.49
2023-03-19T20:03:32.318Z,79.88
2023-03-19T20:06:06.987Z,79.35
2023-03-19T20:08:33.695Z,79.57
2023-03-19T20:11:06.971Z,78.42
2023-03-19T20:13:34.867Z,79.11
2023-03-19T20:16:03.112Z,79.44
2023-03-19T20:18:39.964Z,79.60
2023-03-19T20:21:07.488Z,79.75
2023-03-19T20:23:41.060Z,80.99
2023-03-19T20:26:13.101Z,81.31
2023-03-19T20:28:46.941Z,81.76
2023-03-19T20:31:21.445Z,81.06
2023-03-19T20:33:54.920Z,81.08
2023-03-19T20:36:21.587Z,80.63
2023-03-19T20:38:48.351Z,81.29
2023-03-19T20:41:27.971Z,81.36
2023-03-19T20:43:55.963Z,81.62
2023-03-19T20:46:29.998Z,81.38
2023-03-19T20:49:10.021Z,81.83
2023-03-19T20:51:36.759Z,81.35
2023-03-19T20:54:11.993Z,82.12
2023-03-19T20:56:53.114Z,81.88
2023-03-19T20:59:19.736Z,82.52
2023-03-19T21:01:53.021Z,82.85
2023-03-19T21:04:27.976Z,83.17
2023-03-19T21:07:00.946Z,83.66
2023-03-19T21:09:34.023Z,83.70
2023-03-19T21:12:07.000Z,83.74
2023-03-19T21:14:34.891Z,83.83
2023-03-19T21:17:08.065Z,83.69
2023-03-19T21:19:40.968Z,83.31
2023-03-19T21:22:22.035Z,83.31
2023-03-19T21:24:51.021Z,83.57
2023-03-19T21:27:34.023Z,82.84
2023-03-19T21:30:00.755Z,81.38
2023-03-19T21:32:34.119Z,81.67
2023-03-19T21:35:00.974Z,81.67
2023-03-19T21:37:34.034Z,81.78
2023-03-19T21:40:00.862Z,81.17
2023-03-19T21:42:35.968Z,81.27
2023-03-19T21:45:02.678Z,81.63
2023-03-19T21:47:43.039Z,81.26
2023-03-19T21:50:24.028Z,81.32
2023-03-19T21:53:01.273Z,81.81
2023-03-19T21:55:28.322Z,82.11
2023-03-19T21:58:04.037Z,81.86
2023-03-19T22:00:38.039Z,82.40
2023-03-19T22:03:11.029Z,82.12
2023-03-19T22:05:37.993Z,82.01
2023-03-19T22:08:11.050Z,82.01
2023-03-19T22:10:45.036Z,82.28
2023-03-19T22:13:29.115Z,82.54
2023-03-19T22:16:04.065Z,82.66
2023-03-19T22:18:30.666Z,82.76
2023-03-19T22:21:04.038Z,82.39
2023-03-19T22:23:30.746Z,83.04
2023-03-19T22:25:57.408Z,82.86
2023-03-19T22:28:39.041Z,82.95
2023-03-19T22:31:06.158Z,82.90
2023-03-19T22:33:39.067Z,82.79
2023-03-19T22:36:06.104Z,82.78
2023-03-19T22:38:39.079Z,83.12
2023-03-19T22:41:17.209Z,83.32
2023-03-19T22:43:52.023Z,83.61
2023-03-19T22:46:25.952Z,82.67
2023-03-19T22:48:59.001Z,82.67
2023-03-19T22:51:27.655Z,82.50
2023-03-19T22:54:02.001Z,83.03
2023-03-19T22:56:28.594Z,82.96
2023-03-19T22:59:03.103Z,83.15
2023-03-19T23:01:45.147Z,82.99
2023-03-19T23:04:27.067Z,83.19
2023-03-19T23:06:55.629Z,82.98
2023-03-19T23:09:38.093Z,83.03
2023-03-19T23:12:05.861Z,83.15
2023-03-19T23:14:39.151Z,82.93
2023-03-19T23:17:19.757Z,83.04
2023-03-19T23:19:53.112Z,83.32
2023-03-19T23:22:19.758Z,83.17
2023-03-19T23:24:53.149Z,82.73
2023-03-19T23:27:24.771Z,83.09
2023-03-19T23:29:59.025Z,82.97
2023-03-19T23:32:33.109Z,83.02
2023-03-19T23:35:06.120Z,82.94
2023-03-19T23:37:32.851Z,83.02
2023-03-19T23:40:06.157Z,83.27
2023-03-19T23:42:39.151Z,83.27
2023-03-19T23:45:06.735Z,83.21
2023-03-19T23:47:47.052Z,83.30
2023-03-19T23:50:13.896Z,83.31
2023-03-19T23:52:47.033Z,83.45
2023-03-19T23:55:13.728Z,83.65
2023-03-19T23:57:47.098Z,83.28
